Des Peres, Missouri
Current Conditions -  °F | °C
As of 9:58 AM on Monday 24 Nov 2014 (Local Time) from KSTL Reporting Station
Overcast Overcast  
Wind Chill: 29°   Ceiling: 4100
Heat Index: 39°   Visibility: 10mi
Dew Point: 28°   Wind: 21mph
Humidity: 65%   Direction: 260°W
Pressure: 29.65"   Gusts: 26mph
Location:  38.5796°N, 90.4197°W
Report Text: KSTL 241558Z 26018G23KT 10SM SCT029 OVC041 04/M02 A2965 RMK AO2
Loading
Personal Weather Stations






























Interactive Weather Map New forecast layout! Learn more

10-Day Weather Forecast

Advertisements
Track Severe Weather on mobile